sensor_id;sensor_type;location;lat;lon;timestamp;P1;durP1;ratioP1;P2;durP2;ratioP2
34695;SDS011;20918;51.138;17.370;2023-09-30T00:01:19;13.70;;;9.50;;
34695;SDS011;20918;51.138;17.370;2023-09-30T00:04:26;14.80;;;9.80;;
34695;SDS011;20918;51.138;17.370;2023-09-30T00:07:52;15.40;;;10.30;;
34695;SDS011;20918;51.138;17.370;2023-09-30T00:10:59;15.80;;;10.00;;
34695;SDS011;20918;51.138;17.370;2023-09-30T00:14:18;12.80;;;10.20;;
34695;SDS011;20918;51.138;17.370;2023-09-30T00:17:19;13.20;;;10.40;;
34695;SDS011;20918;51.138;17.370;2023-09-30T00:20:51;13.00;;;10.10;;
34695;SDS011;20918;51.138;17.370;2023-09-30T00:23:55;15.90;;;10.50;;
34695;SDS011;20918;51.138;17.370;2023-09-30T00:27:07;18.60;;;10.60;;
34695;SDS011;20918;51.138;17.370;2023-09-30T00:30:30;18.80;;;10.80;;
34695;SDS011;20918;51.138;17.370;2023-09-30T00:33:47;16.10;;;11.00;;
34695;SDS011;20918;51.138;17.370;2023-09-30T00:37:30;15.90;;;10.40;;
34695;SDS011;20918;51.138;17.370;2023-09-30T00:44:25;14.50;;;9.80;;
34695;SDS011;20918;51.138;17.370;2023-09-30T00:47:49;12.40;;;10.30;;
34695;SDS011;20918;51.138;17.370;2023-09-30T00:51:11;18.10;;;10.50;;
34695;SDS011;20918;51.138;17.370;2023-09-30T00:54:37;10.90;;;9.80;;
34695;SDS011;20918;51.138;17.370;2023-09-30T01:01:04;13.00;;;10.60;;
34695;SDS011;20918;51.138;17.370;2023-09-30T01:04:58;15.00;;;10.50;;
34695;SDS011;20918;51.138;17.370;2023-09-30T01:08:14;12.10;;;10.00;;
34695;SDS011;20918;51.138;17.370;2023-09-30T01:11:31;18.30;;;11.00;;
34695;SDS011;20918;51.138;17.370;2023-09-30T01:14:40;11.10;;;10.00;;
34695;SDS011;20918;51.138;17.370;2023-09-30T01:17:48;15.50;;;10.60;;
34695;SDS011;20918;51.138;17.370;2023-09-30T01:20:52;12.90;;;10.60;;
34695;SDS011;20918;51.138;17.370;2023-09-30T01:23:56;14.00;;;9.90;;
34695;SDS011;20918;51.138;17.370;2023-09-30T01:27:00;13.50;;;11.10;;
34695;SDS011;20918;51.138;17.370;2023-09-30T01:30:05;15.10;;;10.40;;
34695;SDS011;20918;51.138;17.370;2023-09-30T01:33:19;12.00;;;10.30;;
34695;SDS011;20918;51.138;17.370;2023-09-30T01:36:20;14.20;;;10.60;;
34695;SDS011;20918;51.138;17.370;2023-09-30T01:39:21;11.60;;;10.40;;
34695;SDS011;20918;51.138;17.370;2023-09-30T01:42:22;17.30;;;10.30;;
34695;SDS011;20918;51.138;17.370;2023-09-30T01:45:23;14.50;;;10.60;;
34695;SDS011;20918;51.138;17.370;2023-09-30T01:48:23;17.50;;;10.90;;
34695;SDS011;20918;51.138;17.370;2023-09-30T01:51:29;15.10;;;10.50;;
34695;SDS011;20918;51.138;17.370;2023-09-30T01:54:38;11.60;;;10.40;;
34695;SDS011;20918;51.138;17.370;2023-09-30T01:57:45;13.60;;;10.30;;
34695;SDS011;20918;51.138;17.370;2023-09-30T02:00:50;15.40;;;10.80;;
34695;SDS011;20918;51.138;17.370;2023-09-30T02:04:18;13.70;;;10.30;;
34695;SDS011;20918;51.138;17.370;2023-09-30T02:07:39;12.70;;;9.80;;
34695;SDS011;20918;51.138;17.370;2023-09-30T02:11:03;12.20;;;9.90;;
34695;SDS011;20918;51.138;17.370;2023-09-30T02:14:25;13.00;;;10.90;;
34695;SDS011;20918;51.138;17.370;2023-09-30T02:17:32;14.70;;;11.00;;
34695;SDS011;20918;51.138;17.370;2023-09-30T02:20:33;13.00;;;10.50;;
34695;SDS011;20918;51.138;17.370;2023-09-30T02:23:35;15.50;;;10.70;;
34695;SDS011;20918;51.138;17.370;2023-09-30T02:26:36;17.70;;;11.10;;
34695;SDS011;20918;51.138;17.370;2023-09-30T02:29:52;12.40;;;9.80;;
34695;SDS011;20918;51.138;17.370;2023-09-30T02:32:58;15.60;;;10.50;;
34695;SDS011;20918;51.138;17.370;2023-09-30T02:36:02;13.20;;;10.70;;
34695;SDS011;20918;51.138;17.370;2023-09-30T02:39:13;17.50;;;10.50;;
34695;SDS011;20918;51.138;17.370;2023-09-30T02:42:40;16.00;;;10.70;;
34695;SDS011;20918;51.138;17.370;2023-09-30T02:45:53;15.90;;;10.80;;
34695;SDS011;20918;51.138;17.370;2023-09-30T02:49:14;14.30;;;10.70;;
34695;SDS011;20918;51.138;17.370;2023-09-30T02:52:21;15.10;;;10.10;;
34695;SDS011;20918;51.138;17.370;2023-09-30T02:55:26;16.60;;;11.40;;
34695;SDS011;20918;51.138;17.370;2023-09-30T02:58:58;12.30;;;10.60;;
34695;SDS011;20918;51.138;17.370;2023-09-30T03:02:07;13.00;;;10.10;;
34695;SDS011;20918;51.138;17.370;2023-09-30T03:05:45;15.20;;;9.40;;
34695;SDS011;20918;51.138;17.370;2023-09-30T03:08:51;13.20;;;9.60;;
34695;SDS011;20918;51.138;17.370;2023-09-30T03:12:12;11.70;;;10.40;;
34695;SDS011;20918;51.138;17.370;2023-09-30T03:15:22;14.20;;;10.00;;
34695;SDS011;20918;51.138;17.370;2023-09-30T03:18:31;12.40;;;9.10;;
34695;SDS011;20918;51.138;17.370;2023-09-30T03:21:47;12.10;;;10.70;;
34695;SDS011;20918;51.138;17.370;2023-09-30T03:35:22;10.60;;;8.90;;
34695;SDS011;20918;51.138;17.370;2023-09-30T03:38:28;14.30;;;9.60;;
34695;SDS011;20918;51.138;17.370;2023-09-30T03:41:50;13.10;;;8.70;;
34695;SDS011;20918;51.138;17.370;2023-09-30T03:45:22;12.00;;;8.10;;
34695;SDS011;20918;51.138;17.370;2023-09-30T03:48:46;10.10;;;8.40;;
34695;SDS011;20918;51.138;17.370;2023-09-30T03:52:05;9.80;;;8.50;;
34695;SDS011;20918;51.138;17.370;2023-09-30T03:55:08;11.90;;;8.40;;
34695;SDS011;20918;51.138;17.370;2023-09-30T03:58:31;15.00;;;8.90;;
34695;SDS011;20918;51.138;17.370;2023-09-30T04:01:43;11.30;;;8.10;;
34695;SDS011;20918;51.138;17.370;2023-09-30T04:05:04;16.40;;;8.80;;
34695;SDS011;20918;51.138;17.370;2023-09-30T04:08:33;12.90;;;9.30;;
34695;SDS011;20918;51.138;17.370;2023-09-30T04:15:30;13.40;;;9.20;;
34695;SDS011;20918;51.138;17.370;2023-09-30T04:18:49;13.90;;;9.80;;
34695;SDS011;20918;51.138;17.370;2023-09-30T04:22:36;14.90;;;10.70;;
34695;SDS011;20918;51.138;17.370;2023-09-30T04:25:43;14.70;;;11.70;;
34695;SDS011;20918;51.138;17.370;2023-09-30T04:28:53;15.70;;;10.00;;
34695;SDS011;20918;51.138;17.370;2023-09-30T04:32:09;13.10;;;8.40;;
34695;SDS011;20918;51.138;17.370;2023-09-30T04:35:16;13.70;;;9.10;;
34695;SDS011;20918;51.138;17.370;2023-09-30T04:39:04;11.60;;;8.10;;
34695;SDS011;20918;51.138;17.370;2023-09-30T04:42:33;10.00;;;8.00;;
34695;SDS011;20918;51.138;17.370;2023-09-30T04:45:44;12.00;;;8.00;;
34695;SDS011;20918;51.138;17.370;2023-09-30T04:49:15;11.40;;;7.50;;
34695;SDS011;20918;51.138;17.370;2023-09-30T04:52:27;12.90;;;7.80;;
34695;SDS011;20918;51.138;17.370;2023-09-30T04:55:44;9.90;;;7.30;;
34695;SDS011;20918;51.138;17.370;2023-09-30T04:58:55;13.90;;;8.30;;
34695;SDS011;20918;51.138;17.370;2023-09-30T05:02:01;13.20;;;7.40;;
34695;SDS011;20918;51.138;17.370;2023-09-30T05:05:04;13.40;;;8.00;;
34695;SDS011;20918;51.138;17.370;2023-09-30T05:11:27;12.70;;;8.00;;
34695;SDS011;20918;51.138;17.370;2023-09-30T05:14:39;13.40;;;7.40;;
34695;SDS011;20918;51.138;17.370;2023-09-30T05:18:07;11.90;;;7.50;;
34695;SDS011;20918;51.138;17.370;2023-09-30T05:21:12;11.10;;;7.60;;
34695;SDS011;20918;51.138;17.370;2023-09-30T05:24:15;11.20;;;7.20;;
34695;SDS011;20918;51.138;17.370;2023-09-30T05:31:12;16.00;;;7.90;;
34695;SDS011;20918;51.138;17.370;2023-09-30T05:34:40;11.10;;;7.10;;
34695;SDS011;20918;51.138;17.370;2023-09-30T05:37:41;11.30;;;7.20;;
34695;SDS011;20918;51.138;17.370;2023-09-30T05:40:57;11.80;;;7.80;;
34695;SDS011;20918;51.138;17.370;2023-09-30T05:44:01;10.00;;;7.40;;
34695;SDS011;20918;51.138;17.370;2023-09-30T05:47:25;12.40;;;7.30;;
34695;SDS011;20918;51.138;17.370;2023-09-30T05:50:35;11.90;;;7.80;;
34695;SDS011;20918;51.138;17.370;2023-09-30T05:53:48;10.40;;;7.10;;
34695;SDS011;20918;51.138;17.370;2023-09-30T05:56:50;15.10;;;7.90;;
34695;SDS011;20918;51.138;17.370;2023-09-30T05:59:54;12.40;;;7.90;;
34695;SDS011;20918;51.138;17.370;2023-09-30T06:02:58;14.80;;;7.00;;
34695;SDS011;20918;51.138;17.370;2023-09-30T06:06:02;9.60;;;7.00;;
34695;SDS011;20918;51.138;17.370;2023-09-30T06:09:06;13.90;;;7.20;;
34695;SDS011;20918;51.138;17.370;2023-09-30T06:12:08;10.10;;;6.70;;
34695;SDS011;20918;51.138;17.370;2023-09-30T06:15:15;10.40;;;6.90;;
34695;SDS011;20918;51.138;17.370;2023-09-30T06:18:24;17.00;;;7.70;;
34695;SDS011;20918;51.138;17.370;2023-09-30T06:21:25;14.30;;;7.90;;
34695;SDS011;20918;51.138;17.370;2023-09-30T06:24:29;13.20;;;8.00;;
34695;SDS011;20918;51.138;17.370;2023-09-30T06:31:08;10.90;;;7.00;;
34695;SDS011;20918;51.138;17.370;2023-09-30T06:34:27;10.60;;;6.70;;
34695;SDS011;20918;51.138;17.370;2023-09-30T06:37:48;12.00;;;7.00;;
34695;SDS011;20918;51.138;17.370;2023-09-30T06:40:58;10.20;;;6.30;;
34695;SDS011;20918;51.138;17.370;2023-09-30T06:44:23;13.90;;;7.20;;
34695;SDS011;20918;51.138;17.370;2023-09-30T06:47:46;8.70;;;3.70;;
34695;SDS011;20918;51.138;17.370;2023-09-30T06:55:08;7.70;;;3.00;;
34695;SDS011;20918;51.138;17.370;2023-09-30T06:58:12;6.50;;;2.30;;
34695;SDS011;20918;51.138;17.370;2023-09-30T07:01:24;6.50;;;2.20;;
34695;SDS011;20918;51.138;17.370;2023-09-30T07:04:25;7.20;;;2.50;;
34695;SDS011;20918;51.138;17.370;2023-09-30T07:07:50;5.80;;;2.70;;
34695;SDS011;20918;51.138;17.370;2023-09-30T07:10:55;8.20;;;2.30;;
34695;SDS011;20918;51.138;17.370;2023-09-30T07:13:57;6.10;;;2.50;;
34695;SDS011;20918;51.138;17.370;2023-09-30T07:17:19;9.70;;;3.50;;
34695;SDS011;20918;51.138;17.370;2023-09-30T07:20:55;8.70;;;3.20;;
34695;SDS011;20918;51.138;17.370;2023-09-30T07:24:04;10.30;;;4.10;;
34695;SDS011;20918;51.138;17.370;2023-09-30T07:30:50;13.00;;;3.80;;
34695;SDS011;20918;51.138;17.370;2023-09-30T07:33:54;8.00;;;3.30;;
34695;SDS011;20918;51.138;17.370;2023-09-30T07:37:05;8.70;;;2.80;;
34695;SDS011;20918;51.138;17.370;2023-09-30T07:40:19;10.40;;;2.90;;
34695;SDS011;20918;51.138;17.370;2023-09-30T07:43:24;9.00;;;3.30;;
34695;SDS011;20918;51.138;17.370;2023-09-30T07:46:37;9.00;;;3.40;;
34695;SDS011;20918;51.138;17.370;2023-09-30T07:49:41;8.40;;;2.80;;
34695;SDS011;20918;51.138;17.370;2023-09-30T07:52:56;12.70;;;3.60;;
34695;SDS011;20918;51.138;17.370;2023-09-30T07:56:01;7.60;;;2.80;;
34695;SDS011;20918;51.138;17.370;2023-09-30T07:59:05;10.00;;;3.00;;
34695;SDS011;20918;51.138;17.370;2023-09-30T08:02:20;7.80;;;2.60;;
34695;SDS011;20918;51.138;17.370;2023-09-30T08:05:39;7.70;;;2.60;;
34695;SDS011;20918;51.138;17.370;2023-09-30T08:12:17;7.60;;;4.00;;
34695;SDS011;20918;51.138;17.370;2023-09-30T08:19:21;8.30;;;3.40;;
34695;SDS011;20918;51.138;17.370;2023-09-30T08:23:04;6.30;;;3.20;;
34695;SDS011;20918;51.138;17.370;2023-09-30T08:26:10;8.40;;;3.60;;
34695;SDS011;20918;51.138;17.370;2023-09-30T08:29:23;8.60;;;4.80;;
34695;SDS011;20918;51.138;17.370;2023-09-30T08:40:20;7.60;;;4.90;;
34695;SDS011;20918;51.138;17.370;2023-09-30T08:43:56;12.00;;;5.80;;
34695;SDS011;20918;51.138;17.370;2023-09-30T08:47:15;12.50;;;5.50;;
34695;SDS011;20918;51.138;17.370;2023-09-30T08:50:58;12.60;;;5.80;;
34695;SDS011;20918;51.138;17.370;2023-09-30T08:54:03;8.70;;;5.30;;
34695;SDS011;20918;51.138;17.370;2023-09-30T08:57:10;9.20;;;5.40;;
34695;SDS011;20918;51.138;17.370;2023-09-30T09:00:36;8.70;;;5.50;;
34695;SDS011;20918;51.138;17.370;2023-09-30T09:04:07;12.10;;;5.20;;
34695;SDS011;20918;51.138;17.370;2023-09-30T09:07:13;8.20;;;5.10;;
34695;SDS011;20918;51.138;17.370;2023-09-30T09:18:07;9.80;;;4.10;;
34695;SDS011;20918;51.138;17.370;2023-09-30T09:21:58;11.00;;;3.60;;
34695;SDS011;20918;51.138;17.370;2023-09-30T09:25:26;8.40;;;4.20;;
34695;SDS011;20918;51.138;17.370;2023-09-30T09:29:03;12.30;;;3.70;;
34695;SDS011;20918;51.138;17.370;2023-09-30T09:32:14;13.80;;;3.40;;
34695;SDS011;20918;51.138;17.370;2023-09-30T09:35:19;13.70;;;4.00;;
34695;SDS011;20918;51.138;17.370;2023-09-30T09:38:44;12.90;;;3.70;;
34695;SDS011;20918;51.138;17.370;2023-09-30T09:41:54;9.60;;;3.50;;
34695;SDS011;20918;51.138;17.370;2023-09-30T09:45:17;13.70;;;3.50;;
34695;SDS011;20918;51.138;17.370;2023-09-30T09:48:42;12.60;;;3.50;;
34695;SDS011;20918;51.138;17.370;2023-09-30T09:59:39;11.20;;;3.80;;
34695;SDS011;20918;51.138;17.370;2023-09-30T10:02:56;13.30;;;4.50;;
34695;SDS011;20918;51.138;17.370;2023-09-30T10:06:02;12.90;;;4.90;;
34695;SDS011;20918;51.138;17.370;2023-09-30T10:09:08;14.90;;;4.80;;
34695;SDS011;20918;51.138;17.370;2023-09-30T10:12:14;12.50;;;4.70;;
34695;SDS011;20918;51.138;17.370;2023-09-30T10:15:49;12.00;;;3.40;;
34695;SDS011;20918;51.138;17.370;2023-09-30T10:22:39;12.30;;;3.20;;
34695;SDS011;20918;51.138;17.370;2023-09-30T10:25:44;8.00;;;3.30;;
34695;SDS011;20918;51.138;17.370;2023-09-30T10:29:23;9.50;;;3.20;;
34695;SDS011;20918;51.138;17.370;2023-09-30T10:36:36;8.30;;;2.60;;
34695;SDS011;20918;51.138;17.370;2023-09-30T10:44:14;7.60;;;2.50;;
34695;SDS011;20918;51.138;17.370;2023-09-30T10:50:52;10.00;;;2.90;;
34695;SDS011;20918;51.138;17.370;2023-09-30T10:54:22;11.20;;;3.20;;
34695;SDS011;20918;51.138;17.370;2023-09-30T10:57:39;8.80;;;3.10;;
34695;SDS011;20918;51.138;17.370;2023-09-30T11:00:55;11.00;;;3.40;;
34695;SDS011;20918;51.138;17.370;2023-09-30T11:08:17;5.70;;;2.70;;
34695;SDS011;20918;51.138;17.370;2023-09-30T11:14:41;15.20;;;4.20;;
34695;SDS011;20918;51.138;17.370;2023-09-30T11:17:44;10.30;;;3.10;;
34695;SDS011;20918;51.138;17.370;2023-09-30T11:20:54;10.10;;;3.30;;
34695;SDS011;20918;51.138;17.370;2023-09-30T11:24:05;8.40;;;3.10;;
34695;SDS011;20918;51.138;17.370;2023-09-30T11:27:57;12.80;;;4.20;;
34695;SDS011;20918;51.138;17.370;2023-09-30T11:34:48;8.40;;;2.90;;
34695;SDS011;20918;51.138;17.370;2023-09-30T11:41:58;6.70;;;3.10;;
34695;SDS011;20918;51.138;17.370;2023-09-30T11:45:17;8.70;;;3.10;;
34695;SDS011;20918;51.138;17.370;2023-09-30T11:52:46;7.70;;;3.30;;
34695;SDS011;20918;51.138;17.370;2023-09-30T11:55:50;13.60;;;4.20;;
34695;SDS011;20918;51.138;17.370;2023-09-30T12:08:04;12.40;;;3.10;;
34695;SDS011;20918;51.138;17.370;2023-09-30T12:12:07;11.40;;;3.40;;
34695;SDS011;20918;51.138;17.370;2023-09-30T12:23:39;11.30;;;3.60;;
34695;SDS011;20918;51.138;17.370;2023-09-30T12:27:27;9.30;;;3.60;;
34695;SDS011;20918;51.138;17.370;2023-09-30T12:34:35;11.70;;;4.00;;
34695;SDS011;20918;51.138;17.370;2023-09-30T12:38:30;9.20;;;3.60;;
34695;SDS011;20918;51.138;17.370;2023-09-30T12:49:08;8.70;;;3.40;;
34695;SDS011;20918;51.138;17.370;2023-09-30T12:56:10;15.80;;;4.10;;
34695;SDS011;20918;51.138;17.370;2023-09-30T12:59:14;11.10;;;4.40;;
34695;SDS011;20918;51.138;17.370;2023-09-30T13:02:49;11.20;;;3.60;;
34695;SDS011;20918;51.138;17.370;2023-09-30T13:05:54;10.20;;;4.50;;
34695;SDS011;20918;51.138;17.370;2023-09-30T13:08:59;11.80;;;4.10;;
34695;SDS011;20918;51.138;17.370;2023-09-30T13:19:45;9.00;;;3.70;;
34695;SDS011;20918;51.138;17.370;2023-09-30T13:22:50;8.60;;;3.30;;
34695;SDS011;20918;51.138;17.370;2023-09-30T13:25:53;12.60;;;3.70;;
34695;SDS011;20918;51.138;17.370;2023-09-30T13:28:57;5.70;;;2.80;;
34695;SDS011;20918;51.138;17.370;2023-09-30T13:32:01;11.00;;;3.20;;
34695;SDS011;20918;51.138;17.370;2023-09-30T13:35:05;7.80;;;3.20;;
34695;SDS011;20918;51.138;17.370;2023-09-30T13:38:08;9.20;;;2.70;;
34695;SDS011;20918;51.138;17.370;2023-09-30T13:41:16;8.70;;;2.80;;
34695;SDS011;20918;51.138;17.370;2023-09-30T13:44:47;7.90;;;2.90;;
34695;SDS011;20918;51.138;17.370;2023-09-30T13:47:48;8.70;;;3.00;;
34695;SDS011;20918;51.138;17.370;2023-09-30T13:55:19;9.50;;;3.60;;
34695;SDS011;20918;51.138;17.370;2023-09-30T13:58:31;8.50;;;3.20;;
34695;SDS011;20918;51.138;17.370;2023-09-30T14:02:12;15.50;;;4.30;;
34695;SDS011;20918;51.138;17.370;2023-09-30T14:05:16;11.10;;;3.40;;
34695;SDS011;20918;51.138;17.370;2023-09-30T14:08:41;10.00;;;3.40;;
34695;SDS011;20918;51.138;17.370;2023-09-30T14:11:57;9.00;;;3.30;;
34695;SDS011;20918;51.138;17.370;2023-09-30T14:15:01;8.40;;;3.50;;
34695;SDS011;20918;51.138;17.370;2023-09-30T14:18:05;10.20;;;3.10;;
34695;SDS011;20918;51.138;17.370;2023-09-30T14:21:16;10.50;;;3.70;;
34695;SDS011;20918;51.138;17.370;2023-09-30T14:24:47;11.10;;;3.20;;
34695;SDS011;20918;51.138;17.370;2023-09-30T14:27:50;12.30;;;3.20;;
34695;SDS011;20918;51.138;17.370;2023-09-30T14:30:51;7.20;;;2.60;;
34695;SDS011;20918;51.138;17.370;2023-09-30T14:33:53;11.00;;;3.40;;
34695;SDS011;20918;51.138;17.370;2023-09-30T14:36:54;10.30;;;3.70;;
34695;SDS011;20918;51.138;17.370;2023-09-30T14:40:04;8.90;;;3.00;;
34695;SDS011;20918;51.138;17.370;2023-09-30T14:43:37;11.00;;;3.90;;
34695;SDS011;20918;51.138;17.370;2023-09-30T14:46:41;10.60;;;3.80;;
34695;SDS011;20918;51.138;17.370;2023-09-30T14:49:48;14.80;;;4.70;;
34695;SDS011;20918;51.138;17.370;2023-09-30T14:52:54;11.40;;;4.20;;
34695;SDS011;20918;51.138;17.370;2023-09-30T14:55:58;11.10;;;4.10;;
34695;SDS011;20918;51.138;17.370;2023-09-30T14:59:28;8.40;;;2.90;;
34695;SDS011;20918;51.138;17.370;2023-09-30T15:02:33;10.80;;;3.90;;
34695;SDS011;20918;51.138;17.370;2023-09-30T15:05:39;9.20;;;3.40;;
34695;SDS011;20918;51.138;17.370;2023-09-30T15:08:43;12.60;;;3.50;;
34695;SDS011;20918;51.138;17.370;2023-09-30T15:11:48;8.80;;;3.50;;
34695;SDS011;20918;51.138;17.370;2023-09-30T15:14:55;9.50;;;3.80;;
34695;SDS011;20918;51.138;17.370;2023-09-30T15:17:59;13.50;;;4.10;;
34695;SDS011;20918;51.138;17.370;2023-09-30T15:21:12;11.80;;;3.60;;
34695;SDS011;20918;51.138;17.370;2023-09-30T15:24:25;9.90;;;3.40;;
34695;SDS011;20918;51.138;17.370;2023-09-30T15:27:29;10.20;;;3.40;;
34695;SDS011;20918;51.138;17.370;2023-09-30T15:30:50;10.90;;;3.40;;
34695;SDS011;20918;51.138;17.370;2023-09-30T15:33:54;12.40;;;3.60;;
34695;SDS011;20918;51.138;17.370;2023-09-30T15:36:59;11.40;;;3.70;;
34695;SDS011;20918;51.138;17.370;2023-09-30T15:43:58;8.10;;;3.30;;
34695;SDS011;20918;51.138;17.370;2023-09-30T15:47:06;10.00;;;3.20;;
34695;SDS011;20918;51.138;17.370;2023-09-30T15:53:37;16.50;;;3.70;;
34695;SDS011;20918;51.138;17.370;2023-09-30T15:56:45;12.40;;;3.40;;
34695;SDS011;20918;51.138;17.370;2023-09-30T15:59:55;13.10;;;3.80;;
34695;SDS011;20918;51.138;17.370;2023-09-30T16:02:59;10.80;;;3.30;;
34695;SDS011;20918;51.138;17.370;2023-09-30T16:06:16;10.50;;;3.50;;
34695;SDS011;20918;51.138;17.370;2023-09-30T16:09:20;13.60;;;3.00;;
34695;SDS011;20918;51.138;17.370;2023-09-30T16:15:46;10.40;;;3.30;;
34695;SDS011;20918;51.138;17.370;2023-09-30T16:19:02;9.30;;;3.10;;
34695;SDS011;20918;51.138;17.370;2023-09-30T16:22:06;10.50;;;4.20;;
34695;SDS011;20918;51.138;17.370;2023-09-30T16:25:07;10.90;;;4.20;;
34695;SDS011;20918;51.138;17.370;2023-09-30T16:28:09;10.50;;;4.00;;
34695;SDS011;20918;51.138;17.370;2023-09-30T16:31:11;13.90;;;4.60;;
34695;SDS011;20918;51.138;17.370;2023-09-30T16:34:24;11.40;;;4.10;;
34695;SDS011;20918;51.138;17.370;2023-09-30T16:37:39;13.50;;;5.50;;
34695;SDS011;20918;51.138;17.370;2023-09-30T16:41:01;13.70;;;6.50;;
34695;SDS011;20918;51.138;17.370;2023-09-30T16:44:42;16.50;;;5.60;;
34695;SDS011;20918;51.138;17.370;2023-09-30T16:47:55;15.00;;;5.70;;
34695;SDS011;20918;51.138;17.370;2023-09-30T16:50:57;15.20;;;6.00;;
34695;SDS011;20918;51.138;17.370;2023-09-30T16:54:08;11.50;;;4.60;;
34695;SDS011;20918;51.138;17.370;2023-09-30T16:57:09;17.10;;;6.10;;
34695;SDS011;20918;51.138;17.370;2023-09-30T17:00:13;18.40;;;6.60;;
34695;SDS011;20918;51.138;17.370;2023-09-30T17:03:19;18.70;;;7.60;;
34695;SDS011;20918;51.138;17.370;2023-09-30T17:06:20;17.10;;;7.40;;
34695;SDS011;20918;51.138;17.370;2023-09-30T17:09:37;17.00;;;6.60;;
34695;SDS011;20918;51.138;17.370;2023-09-30T17:12:38;19.90;;;6.10;;
34695;SDS011;20918;51.138;17.370;2023-09-30T17:15:42;16.40;;;5.80;;
34695;SDS011;20918;51.138;17.370;2023-09-30T17:18:48;14.00;;;6.20;;
34695;SDS011;20918;51.138;17.370;2023-09-30T17:21:52;12.10;;;5.80;;
34695;SDS011;20918;51.138;17.370;2023-09-30T17:24:54;13.00;;;6.10;;
34695;SDS011;20918;51.138;17.370;2023-09-30T17:27:55;13.30;;;5.60;;
34695;SDS011;20918;51.138;17.370;2023-09-30T17:31:05;15.90;;;6.30;;
34695;SDS011;20918;51.138;17.370;2023-09-30T17:34:07;13.50;;;6.40;;
34695;SDS011;20918;51.138;17.370;2023-09-30T17:37:09;17.30;;;6.60;;
34695;SDS011;20918;51.138;17.370;2023-09-30T17:40:12;13.70;;;6.50;;
34695;SDS011;20918;51.138;17.370;2023-09-30T17:43:14;18.30;;;5.90;;
34695;SDS011;20918;51.138;17.370;2023-09-30T17:46:15;10.90;;;5.70;;
34695;SDS011;20918;51.138;17.370;2023-09-30T17:49:22;15.20;;;6.90;;
34695;SDS011;20918;51.138;17.370;2023-09-30T17:52:23;14.70;;;6.10;;
34695;SDS011;20918;51.138;17.370;2023-09-30T17:55:28;10.00;;;5.70;;
34695;SDS011;20918;51.138;17.370;2023-09-30T17:58:28;12.90;;;5.50;;
34695;SDS011;20918;51.138;17.370;2023-09-30T18:01:33;13.40;;;6.00;;
34695;SDS011;20918;51.138;17.370;2023-09-30T18:04:34;18.00;;;5.70;;
34695;SDS011;20918;51.138;17.370;2023-09-30T18:07:55;13.60;;;5.60;;
34695;SDS011;20918;51.138;17.370;2023-09-30T18:10:57;16.40;;;5.50;;
34695;SDS011;20918;51.138;17.370;2023-09-30T18:14:00;11.50;;;5.30;;
34695;SDS011;20918;51.138;17.370;2023-09-30T18:17:05;13.90;;;5.50;;
34695;SDS011;20918;51.138;17.370;2023-09-30T18:20:09;13.90;;;6.10;;
34695;SDS011;20918;51.138;17.370;2023-09-30T18:23:13;9.90;;;4.80;;
34695;SDS011;20918;51.138;17.370;2023-09-30T18:26:17;9.30;;;4.70;;
34695;SDS011;20918;51.138;17.370;2023-09-30T18:29:18;11.80;;;4.30;;
34695;SDS011;20918;51.138;17.370;2023-09-30T18:32:26;13.80;;;4.70;;
34695;SDS011;20918;51.138;17.370;2023-09-30T18:35:35;13.50;;;4.80;;
34695;SDS011;20918;51.138;17.370;2023-09-30T18:38:37;11.50;;;4.90;;
34695;SDS011;20918;51.138;17.370;2023-09-30T18:41:42;13.60;;;5.00;;
34695;SDS011;20918;51.138;17.370;2023-09-30T18:47:57;16.80;;;7.10;;
34695;SDS011;20918;51.138;17.370;2023-09-30T18:50:59;16.40;;;6.00;;
34695;SDS011;20918;51.138;17.370;2023-09-30T18:54:00;14.00;;;5.50;;
34695;SDS011;20918;51.138;17.370;2023-09-30T18:57:01;16.70;;;6.40;;
34695;SDS011;20918;51.138;17.370;2023-09-30T19:00:03;13.30;;;6.40;;
34695;SDS011;20918;51.138;17.370;2023-09-30T19:03:05;15.90;;;6.90;;
34695;SDS011;20918;51.138;17.370;2023-09-30T19:06:10;15.20;;;6.60;;
34695;SDS011;20918;51.138;17.370;2023-09-30T19:09:20;19.70;;;7.60;;
34695;SDS011;20918;51.138;17.370;2023-09-30T19:12:21;19.30;;;8.10;;
34695;SDS011;20918;51.138;17.370;2023-09-30T19:15:22;27.40;;;10.50;;
34695;SDS011;20918;51.138;17.370;2023-09-30T19:18:29;27.10;;;11.30;;
34695;SDS011;20918;51.138;17.370;2023-09-30T19:21:31;20.40;;;9.70;;
34695;SDS011;20918;51.138;17.370;2023-09-30T19:24:34;16.40;;;7.30;;
34695;SDS011;20918;51.138;17.370;2023-09-30T19:27:35;43.40;;;19.50;;
34695;SDS011;20918;51.138;17.370;2023-09-30T19:30:39;19.30;;;9.30;;
34695;SDS011;20918;51.138;17.370;2023-09-30T19:33:56;21.70;;;9.70;;
34695;SDS011;20918;51.138;17.370;2023-09-30T19:37:02;23.10;;;9.70;;
34695;SDS011;20918;51.138;17.370;2023-09-30T19:40:06;21.40;;;9.70;;
34695;SDS011;20918;51.138;17.370;2023-09-30T19:43:11;17.20;;;8.70;;
34695;SDS011;20918;51.138;17.370;2023-09-30T19:46:13;15.50;;;9.40;;
34695;SDS011;20918;51.138;17.370;2023-09-30T19:49:15;18.70;;;9.40;;
34695;SDS011;20918;51.138;17.370;2023-09-30T19:52:24;20.50;;;10.30;;
34695;SDS011;20918;51.138;17.370;2023-09-30T19:55:30;17.30;;;9.00;;
34695;SDS011;20918;51.138;17.370;2023-09-30T19:58:36;23.10;;;10.80;;
34695;SDS011;20918;51.138;17.370;2023-09-30T20:01:37;20.00;;;10.60;;
34695;SDS011;20918;51.138;17.370;2023-09-30T20:05:01;23.90;;;12.00;;
34695;SDS011;20918;51.138;17.370;2023-09-30T20:08:01;20.10;;;10.90;;
34695;SDS011;20918;51.138;17.370;2023-09-30T20:11:07;23.00;;;10.80;;
34695;SDS011;20918;51.138;17.370;2023-09-30T20:14:16;20.50;;;9.80;;
34695;SDS011;20918;51.138;17.370;2023-09-30T20:20:20;21.30;;;10.00;;
34695;SDS011;20918;51.138;17.370;2023-09-30T20:23:23;23.90;;;10.30;;
34695;SDS011;20918;51.138;17.370;2023-09-30T20:26:42;27.50;;;8.50;;
34695;SDS011;20918;51.138;17.370;2023-09-30T20:33:04;22.90;;;8.60;;
34695;SDS011;20918;51.138;17.370;2023-09-30T20:39:26;16.70;;;7.90;;
34695;SDS011;20918;51.138;17.370;2023-09-30T20:42:27;18.50;;;8.30;;
34695;SDS011;20918;51.138;17.370;2023-09-30T20:45:33;17.50;;;7.50;;
34695;SDS011;20918;51.138;17.370;2023-09-30T20:48:44;16.80;;;7.50;;
34695;SDS011;20918;51.138;17.370;2023-09-30T20:51:50;18.50;;;7.00;;
34695;SDS011;20918;51.138;17.370;2023-09-30T20:55:05;16.50;;;7.10;;
34695;SDS011;20918;51.138;17.370;2023-09-30T20:58:08;18.80;;;6.50;;
34695;SDS011;20918;51.138;17.370;2023-09-30T21:01:12;13.90;;;6.40;;
34695;SDS011;20918;51.138;17.370;2023-09-30T21:04:15;15.00;;;6.40;;
34695;SDS011;20918;51.138;17.370;2023-09-30T21:07:22;16.00;;;6.80;;
34695;SDS011;20918;51.138;17.370;2023-09-30T21:10:26;15.00;;;6.50;;
34695;SDS011;20918;51.138;17.370;2023-09-30T21:13:58;20.70;;;8.20;;
34695;SDS011;20918;51.138;17.370;2023-09-30T21:16:58;32.40;;;10.70;;
34695;SDS011;20918;51.138;17.370;2023-09-30T21:23:02;38.10;;;12.10;;
34695;SDS011;20918;51.138;17.370;2023-09-30T21:26:03;37.40;;;12.40;;
34695;SDS011;20918;51.138;17.370;2023-09-30T21:29:05;33.20;;;11.60;;
34695;SDS011;20918;51.138;17.370;2023-09-30T21:32:14;31.80;;;11.00;;
34695;SDS011;20918;51.138;17.370;2023-09-30T21:35:15;29.20;;;11.50;;